createdAt,value
2019-04-22T00:00:39.235Z,56.52
2019-04-22T00:01:36.848Z,57.54
2019-04-22T00:02:43.569Z,56.63
2019-04-22T00:03:45.542Z,56.65
2019-04-22T00:04:50.917Z,56.76
2019-04-22T00:05:56.215Z,58.08
2019-04-22T00:06:58.388Z,59.43
2019-04-22T00:08:01.643Z,59.91
2019-04-22T00:09:03.736Z,58.41
2019-04-22T00:10:04.612Z,58.41
2019-04-22T00:11:04.603Z,58.01
2019-04-22T00:12:06.307Z,58.01
2019-04-22T00:13:01.437Z,58.62
2019-04-22T00:14:01.263Z,58.62
2019-04-22T00:15:01.910Z,58.23
2019-04-22T00:15:58.374Z,58.34
2019-04-22T00:17:07.274Z,57.90
2019-04-22T00:18:07.697Z,58.23
2019-04-22T00:19:15.106Z,58.23
2019-04-22T00:20:04.661Z,59.77
2019-04-22T00:21:04.711Z,58.44
2019-04-22T00:22:07.785Z,60.17
2019-04-22T00:22:56.742Z,60.10
2019-04-22T00:25:10.033Z,58.67
2019-04-22T00:26:03.868Z,59.69
2019-04-22T00:27:03.903Z,59.72
2019-04-22T00:28:02.354Z,59.49
2019-04-22T00:29:21.392Z,59.52
2019-04-22T00:30:10.613Z,62.27
2019-04-22T00:31:06.673Z,61.25
2019-04-22T00:31:54.372Z,62.07
2019-04-22T00:34:02.278Z,61.15
2019-04-22T00:35:02.349Z,61.99
2019-04-22T00:36:01.163Z,60.57
2019-04-22T00:37:01.015Z,61.69
2019-04-22T00:38:05.114Z,62.40
2019-04-22T00:39:09.728Z,62.71
2019-04-22T00:39:57.293Z,61.18
2019-04-22T00:41:02.461Z,60.36
2019-04-22T00:42:01.962Z,62.71
2019-04-22T00:42:58.733Z,62.81
2019-04-22T00:44:02.906Z,61.38
2019-04-22T00:45:09.465Z,60.57
2019-04-22T00:45:57.762Z,63.02
2019-04-22T00:47:01.842Z,62.30
2019-04-22T00:48:01.058Z,61.28
2019-04-22T00:49:49.425Z,61.51
2019-04-22T00:50:12.738Z,62.63
2019-04-22T00:51:05.799Z,62.23
2019-04-22T00:53:04.544Z,63.96
2019-04-22T00:54:03.543Z,63.76
2019-04-22T00:55:05.581Z,62.74
2019-04-22T00:56:00.637Z,63.35
2019-04-22T00:57:01.474Z,63.86
2019-04-22T00:58:02.851Z,63.59
2019-04-22T00:58:59.111Z,64.37
2019-04-22T00:59:54.962Z,64.17
2019-04-22T01:01:03.439Z,65.22
2019-04-22T01:02:00.403Z,64.27
2019-04-22T01:03:02.996Z,64.27
2019-04-22T01:04:03.991Z,63.39
2019-04-22T01:05:00.759Z,63.28
2019-04-22T01:06:03.456Z,63.28
2019-04-22T01:06:58.638Z,63.18
2019-04-22T01:08:07.081Z,63.69
2019-04-22T01:10:07.533Z,63.07
2019-04-22T01:11:06.340Z,63.15
2019-04-22T01:12:00.139Z,62.46
2019-04-22T01:13:01.632Z,63.39
2019-04-22T01:14:01.440Z,63.96
2019-04-22T01:15:01.068Z,64.00
2019-04-22T01:16:09.449Z,63.28
2019-04-22T01:17:01.458Z,64.51
2019-04-22T01:18:00.296Z,63.45
2019-04-22T01:18:59.274Z,63.18
2019-04-22T01:20:04.666Z,63.69
2019-04-22T01:21:58.329Z,63.59
2019-04-22T01:23:02.075Z,63.39
2019-04-22T01:24:59.293Z,64.74
2019-04-22T01:25:55.230Z,66.48
2019-04-22T01:26:56.298Z,64.54
2019-04-22T01:27:54.454Z,64.43
2019-04-22T01:28:51.582Z,64.74
2019-04-22T01:29:51.467Z,64.74
2019-04-22T01:30:48.483Z,63.82
2019-04-22T01:31:38.847Z,64.10
2019-04-22T01:32:41.803Z,63.39
2019-04-22T01:33:44.154Z,61.72
2019-04-22T01:34:49.930Z,61.10
2019-04-22T01:35:56.910Z,60.16
2019-04-22T01:37:54.619Z,57.34
2019-04-22T01:38:58.342Z,58.03
2019-04-22T01:40:04.509Z,57.52
2019-04-22T01:41:07.152Z,57.12
2019-04-22T01:42:05.503Z,56.07
2019-04-22T01:43:03.758Z,55.63
2019-04-22T01:44:15.864Z,55.71
2019-04-22T01:44:59.584Z,55.20
2019-04-22T01:46:01.769Z,54.82
2019-04-22T01:47:08.152Z,54.59
2019-04-22T01:48:08.624Z,54.28
2019-04-22T01:48:59.908Z,55.22
2019-04-22T01:50:04.705Z,54.49
2019-04-22T01:50:54.784Z,55.20
2019-04-22T01:52:18.681Z,55.33
2019-04-22T01:53:08.638Z,54.49
2019-04-22T01:54:05.487Z,55.81
2019-04-22T01:55:04.481Z,55.20
2019-04-22T01:56:02.119Z,54.41
2019-04-22T01:57:02.192Z,54.59
2019-04-22T01:57:59.628Z,54.51
2019-04-22T01:58:54.690Z,55.76
2019-04-22T01:59:51.546Z,57.26
2019-04-22T02:00:59.248Z,58.21
2019-04-22T02:02:02.708Z,58.34
2019-04-22T02:03:07.234Z,57.73
2019-04-22T02:04:01.304Z,59.05
2019-04-22T02:05:04.908Z,58.06
2019-04-22T02:06:00.657Z,57.34
2019-04-22T02:07:05.305Z,58.57
2019-04-22T02:08:08.529Z,58.16
2019-04-22T02:09:14.039Z,58.14
2019-04-22T02:10:07.435Z,59.28
2019-04-22T02:11:01.006Z,56.84
2019-04-22T02:13:04.517Z,59.69
2019-04-22T02:14:09.166Z,58.37
2019-04-22T02:14:59.036Z,61.32
2019-04-22T02:16:09.548Z,61.76
2019-04-22T02:17:02.336Z,61.66
2019-04-22T02:18:03.227Z,62.10
2019-04-22T02:19:02.623Z,63.02
2019-04-22T02:20:08.595Z,62.33
2019-04-22T02:21:03.158Z,63.25
2019-04-22T02:21:59.643Z,64.51
2019-04-22T02:23:19.323Z,65.73
2019-04-22T02:24:20.011Z,65.12
2019-04-22T02:24:59.207Z,64.51
2019-04-22T02:26:02.465Z,65.77
2019-04-22T02:27:06.255Z,65.97
2019-04-22T02:28:11.224Z,64.95
2019-04-22T02:29:03.479Z,65.36
2019-04-22T02:29:57.879Z,66.58
2019-04-22T02:31:23.216Z,65.77
2019-04-22T02:32:13.350Z,66.51
2019-04-22T02:36:20.253Z,67.57
2019-04-22T02:37:06.929Z,67.57
2019-04-22T02:38:07.773Z,67.05
2019-04-22T02:39:07.983Z,67.57
2019-04-22T02:40:10.194Z,67.16
2019-04-22T02:42:14.323Z,67.57
2019-04-22T02:43:19.249Z,67.08
2019-04-22T02:45:04.567Z,67.60
2019-04-22T02:46:22.426Z,66.98
2019-04-22T02:48:20.191Z,69.44
2019-04-22T02:49:11.715Z,68.01
2019-04-22T02:50:06.499Z,69.75
2019-04-22T02:52:06.386Z,68.62
2019-04-22T02:53:17.580Z,68.52
2019-04-22T02:56:23.062Z,68.04
2019-04-22T02:57:18.879Z,67.83
2019-04-22T02:58:03.702Z,69.47
2019-04-22T02:59:12.381Z,69.89
2019-04-22T03:01:13.545Z,69.51
2019-04-22T03:02:12.007Z,70.02
2019-04-22T03:03:20.668Z,70.73
2019-04-22T03:04:10.984Z,71.04
2019-04-22T03:05:13.102Z,69.71
2019-04-22T03:06:55.578Z,69.51
2019-04-22T03:08:14.936Z,69.51
2019-04-22T03:11:12.443Z,69.40
2019-04-22T03:12:11.275Z,68.17
2019-04-22T03:13:16.109Z,68.07
2019-04-22T03:15:06.215Z,67.97
2019-04-22T03:16:17.727Z,67.56
2019-04-22T03:17:10.981Z,70.02
2019-04-22T03:20:06.221Z,69.84
2019-04-22T03:21:03.098Z,69.74
2019-04-22T03:22:14.158Z,70.36
2019-04-22T03:23:17.293Z,70.15
2019-04-22T03:24:17.910Z,71.59
2019-04-22T03:25:34.783Z,70.36
2019-04-22T03:27:58.308Z,71.80
2019-04-22T03:29:04.714Z,72.20
2019-04-22T03:31:04.209Z,71.52
2019-04-22T03:32:32.024Z,71.42
2019-04-22T03:34:54.696Z,70.90
2019-04-22T03:36:36.452Z,71.97
2019-04-22T03:37:21.439Z,72.55
2019-04-22T03:38:20.166Z,74.19
2019-04-22T03:39:29.938Z,72.58
2019-04-22T03:41:13.358Z,72.58
2019-04-22T03:42:07.453Z,73.71
2019-04-22T03:44:18.812Z,74.02
2019-04-22T03:45:12.762Z,74.15
2019-04-22T03:46:06.624Z,74.26
2019-04-22T03:48:04.729Z,73.85
2019-04-22T03:49:17.641Z,74.87
2019-04-22T03:50:17.501Z,73.85
2019-04-22T03:51:20.238Z,74.15
2019-04-22T03:53:11.462Z,74.26
2019-04-22T03:54:10.449Z,74.98
2019-04-22T03:57:28.240Z,74.15
2019-04-22T03:57:57.182Z,74.70
2019-04-22T03:59:16.205Z,75.70
2019-04-22T04:00:21.946Z,74.80
2019-04-22T04:01:06.487Z,75.18
2019-04-22T04:02:15.714Z,74.19
2019-04-22T04:05:01.131Z,76.42
2019-04-22T04:05:59.226Z,75.73
2019-04-22T04:08:18.358Z,75.49
2019-04-22T04:09:13.693Z,74.80
2019-04-22T04:10:10.368Z,74.91
2019-04-22T04:11:12.986Z,75.12
2019-04-22T04:12:03.743Z,74.60
2019-04-22T04:14:12.340Z,74.77
2019-04-22T04:15:14.028Z,74.26
2019-04-22T04:16:03.151Z,75.49
2019-04-22T04:17:59.408Z,75.08
2019-04-22T04:20:10.917Z,74.67
2019-04-22T04:21:20.541Z,75.08
2019-04-22T04:22:09.798Z,74.98
2019-04-22T04:24:24.008Z,75.38
2019-04-22T04:26:09.365Z,74.53
2019-04-22T04:27:28.518Z,73.91
2019-04-22T04:29:27.977Z,74.63
2019-04-22T04:31:09.602Z,74.74
2019-04-22T04:32:18.863Z,74.91
2019-04-22T04:33:13.393Z,74.29
2019-04-22T04:36:14.396Z,74.60
2019-04-22T04:37:18.175Z,73.68
2019-04-22T04:38:00.657Z,75.42
2019-04-22T04:39:05.584Z,74.74
2019-04-22T04:40:18.169Z,74.19
2019-04-22T04:41:23.229Z,74.57
2019-04-22T04:42:16.204Z,74.91
2019-04-22T04:43:00.875Z,74.29
2019-04-22T04:45:26.551Z,75.08
2019-04-22T04:47:17.678Z,73.74
2019-04-22T04:48:00.945Z,74.87
2019-04-22T04:50:09.699Z,73.74
2019-04-22T04:52:10.504Z,73.61
2019-04-22T04:54:13.107Z,74.84
2019-04-22T04:55:18.395Z,74.80
2019-04-22T04:56:10.904Z,74.49
2019-04-22T04:57:07.521Z,73.98
2019-04-22T04:58:18.326Z,73.78
2019-04-22T04:59:16.809Z,73.98
2019-04-22T05:00:32.680Z,73.95
2019-04-22T05:01:23.309Z,73.85
2019-04-22T05:02:12.281Z,72.92
2019-04-22T05:06:09.634Z,73.91
2019-04-22T05:07:14.001Z,73.20
2019-04-22T05:08:00.562Z,72.69
2019-04-22T05:10:23.913Z,73.27
2019-04-22T05:13:01.747Z,71.80
2019-04-22T05:14:05.652Z,71.59
2019-04-22T05:16:22.907Z,70.84
2019-04-22T05:17:03.970Z,71.22
2019-04-22T05:20:07.373Z,70.10
2019-04-22T05:22:13.285Z,69.65
2019-04-22T05:23:01.919Z,69.11
2019-04-22T05:25:09.961Z,69.32
2019-04-22T05:26:04.284Z,68.37
2019-04-22T05:27:11.297Z,67.93
2019-04-22T05:27:57.673Z,67.62
2019-04-22T05:29:02.182Z,67.90
2019-04-22T05:30:19.595Z,66.88
2019-04-22T05:31:03.365Z,66.77
2019-04-22T05:31:59.705Z,67.69
2019-04-22T05:33:18.410Z,66.85
2019-04-22T05:34:05.526Z,67.29
2019-04-22T05:35:00.229Z,66.97
2019-04-22T05:36:01.557Z,67.08
2019-04-22T05:37:01.241Z,66.64
2019-04-22T05:38:05.054Z,67.55
2019-04-22T05:39:00.154Z,67.25
2019-04-22T05:40:04.461Z,67.32
2019-04-22T05:41:00.528Z,65.28
2019-04-22T05:42:03.203Z,66.38
2019-04-22T05:42:56.571Z,66.17
2019-04-22T05:44:04.993Z,65.83
2019-04-22T05:45:05.571Z,63.33
2019-04-22T05:46:01.087Z,62.87
2019-04-22T05:46:53.291Z,61.79
2019-04-22T05:47:56.293Z,60.93
2019-04-22T05:49:03.267Z,59.14
2019-04-22T05:49:54.636Z,57.70
2019-04-22T05:50:56.436Z,57.44
2019-04-22T05:51:54.615Z,55.85
2019-04-22T05:52:55.402Z,54.08
2019-04-22T05:54:02.806Z,53.45
2019-04-22T05:55:03.314Z,53.00
2019-04-22T05:56:20.702Z,51.93
2019-04-22T05:56:58.647Z,50.98
2019-04-22T05:57:57.726Z,48.72
2019-04-22T05:59:03.636Z,47.90
2019-04-22T05:59:59.487Z,48.05
2019-04-22T06:01:21.738Z,48.58
2019-04-22T06:03:06.991Z,46.77
2019-04-22T06:04:58.275Z,46.45
2019-04-22T06:05:55.039Z,46.12
2019-04-22T06:06:54.079Z,46.33
2019-04-22T06:08:57.651Z,46.95
2019-04-22T06:10:04.318Z,46.45
2019-04-22T06:11:04.225Z,47.58
2019-04-22T06:11:54.354Z,48.52
2019-04-22T06:12:59.633Z,49.25
2019-04-22T06:13:57.632Z,49.55
2019-04-22T06:15:01.279Z,48.63
2019-04-22T06:15:54.388Z,49.55
2019-04-22T06:16:57.172Z,49.02
2019-04-22T06:18:07.723Z,48.72
2019-04-22T06:19:03.061Z,47.90
2019-04-22T06:19:57.451Z,48.60
2019-04-22T06:20:59.431Z,48.20
2019-04-22T06:21:58.002Z,49.22
2019-04-22T06:24:04.815Z,50.58
2019-04-22T06:25:02.983Z,50.58
2019-04-22T06:26:09.764Z,50.71
2019-04-22T06:28:03.391Z,51.41
2019-04-22T06:29:05.670Z,50.58
2019-04-22T06:29:53.731Z,49.88
2019-04-22T06:31:03.729Z,48.83
2019-04-22T06:32:17.879Z,48.40
2019-04-22T06:33:05.174Z,47.67
2019-04-22T06:34:02.579Z,47.75
2019-04-22T06:35:00.455Z,47.43
2019-04-22T06:37:11.908Z,45.74
2019-04-22T06:38:19.148Z,44.59
2019-04-22T06:38:51.381Z,44.15
2019-04-22T06:39:59.371Z,43.53
2019-04-22T06:41:04.236Z,42.61
2019-04-22T06:42:06.002Z,42.02
2019-04-22T06:43:05.656Z,42.49
2019-04-22T06:44:04.770Z,42.29
2019-04-22T06:44:58.066Z,41.24
2019-04-22T06:45:58.382Z,40.86
2019-04-22T06:47:03.148Z,40.54
2019-04-22T06:49:03.184Z,40.46
2019-04-22T06:50:00.451Z,41.24
2019-04-22T06:50:52.790Z,40.08
2019-04-22T06:52:04.201Z,39.50
2019-04-22T06:52:59.863Z,38.47
2019-04-22T06:53:55.669Z,38.85
2019-04-22T06:55:03.908Z,39.09
2019-04-22T06:56:11.158Z,38.79
2019-04-22T06:57:04.312Z,38.63
2019-04-22T06:57:59.720Z,40.22
2019-04-22T06:58:58.024Z,40.36
2019-04-22T07:00:02.452Z,40.16
2019-04-22T07:00:58.999Z,40.34
2019-04-22T07:03:23.278Z,40.01
2019-04-22T07:03:57.294Z,39.34
2019-04-22T07:04:57.144Z,40.89
2019-04-22T07:05:59.551Z,43.16
2019-04-22T07:07:05.205Z,42.96
2019-04-22T07:08:14.105Z,44.18
2019-04-22T07:09:20.713Z,43.80
2019-04-22T07:10:06.624Z,44.50
2019-04-22T07:10:54.849Z,41.89
2019-04-22T07:12:02.131Z,41.43
2019-04-22T07:12:56.892Z,39.61
2019-04-22T07:14:01.327Z,39.81
2019-04-22T07:16:13.425Z,37.14
2019-04-22T07:16:56.144Z,36.31
2019-04-22T07:17:55.184Z,36.46
2019-04-22T07:18:54.989Z,37.29
2019-04-22T07:20:01.936Z,37.87
2019-04-22T07:20:57.836Z,37.62
2019-04-22T07:21:57.601Z,36.10
2019-04-22T07:23:04.476Z,36.29
2019-04-22T07:24:15.012Z,37.40
2019-04-22T07:24:59.180Z,37.49
2019-04-22T07:25:58.428Z,37.60
2019-04-22T07:27:02.973Z,36.49
2019-04-22T07:27:58.218Z,35.99
2019-04-22T07:28:57.516Z,36.25
2019-04-22T07:30:06.951Z,34.13
2019-04-22T07:31:01.886Z,34.33
2019-04-22T07:32:05.006Z,35.04
2019-04-22T07:33:15.124Z,32.48
2019-04-22T07:33:58.478Z,33.62
2019-04-22T07:35:04.109Z,34.43
2019-04-22T07:37:23.083Z,34.22
2019-04-22T07:37:53.886Z,34.69
2019-04-22T07:38:56.561Z,34.88
2019-04-22T07:39:50.060Z,35.26
2019-04-22T07:40:55.437Z,34.86
2019-04-22T07:41:51.289Z,35.08
2019-04-22T07:42:59.275Z,34.46
2019-04-22T07:44:54.819Z,32.75
2019-04-22T07:45:58.844Z,32.23
2019-04-22T07:47:10.093Z,32.03
2019-04-22T07:48:01.977Z,32.20
2019-04-22T07:48:59.343Z,31.79
2019-04-22T07:49:59.206Z,31.97
2019-04-22T07:51:55.752Z,29.66
2019-04-22T07:52:51.889Z,30.04
2019-04-22T07:54:00.089Z,30.15
2019-04-22T07:54:56.855Z,29.65
2019-04-22T07:55:58.730Z,29.55
2019-04-22T07:57:04.294Z,30.46
2019-04-22T07:57:58.283Z,30.52
2019-04-22T07:58:56.451Z,29.71
2019-04-22T08:00:02.887Z,28.89
2019-04-22T08:01:06.297Z,30.37
2019-04-22T08:01:56.232Z,27.09
2019-04-22T08:03:04.336Z,26.39
2019-04-22T08:04:16.032Z,28.40
2019-04-22T08:05:07.442Z,27.48
2019-04-22T08:06:05.376Z,26.39
2019-04-22T08:06:57.332Z,25.95
2019-04-22T08:08:05.358Z,25.34
2019-04-22T08:09:01.821Z,23.36
2019-04-22T08:10:57.794Z,23.82
2019-04-22T08:11:56.368Z,23.39
2019-04-22T08:13:01.931Z,22.30
2019-04-22T08:13:55.272Z,22.99
2019-04-22T08:15:12.463Z,23.28
2019-04-22T08:15:55.440Z,21.80
2019-04-22T08:17:01.480Z,20.69
2019-04-22T08:18:01.546Z,22.17
2019-04-22T08:19:02.970Z,23.22
2019-04-22T08:20:59.056Z,21.71
2019-04-22T08:21:57.065Z,21.39
2019-04-22T08:23:02.911Z,20.95
2019-04-22T08:23:56.558Z,21.03
2019-04-22T08:25:55.473Z,20.39
2019-04-22T08:26:57.929Z,21.04
2019-04-22T08:27:57.292Z,20.06
2019-04-22T08:29:02.231Z,21.14
2019-04-22T08:30:14.366Z,20.95
2019-04-22T08:31:01.919Z,20.83
2019-04-22T08:33:15.995Z,19.40
2019-04-22T08:33:54.590Z,18.80
2019-04-22T08:34:55.410Z,18.32
2019-04-22T08:37:26.205Z,19.53
2019-04-22T08:40:03.492Z,21.17
2019-04-22T08:40:56.273Z,20.65
2019-04-22T08:41:55.526Z,20.06
2019-04-22T08:45:57.070Z,19.65
2019-04-22T08:47:08.970Z,19.71
2019-04-22T08:47:55.302Z,19.02
2019-04-22T08:49:00.725Z,20.36
2019-04-22T08:50:04.852Z,21.83
2019-04-22T08:51:00.710Z,20.38
2019-04-22T08:51:56.810Z,20.93
2019-04-22T08:53:03.017Z,20.45
2019-04-22T08:54:03.118Z,19.65
2019-04-22T08:54:57.543Z,19.71
2019-04-22T08:56:10.911Z,19.40
2019-04-22T08:57:03.410Z,19.68
2019-04-22T08:59:07.068Z,20.45
2019-04-22T08:59:59.560Z,20.51
2019-04-22T09:00:57.255Z,19.64
2019-04-22T09:02:01.043Z,19.16
2019-04-22T09:03:00.610Z,19.93
2019-04-22T09:03:58.513Z,20.89
2019-04-22T09:04:56.948Z,19.85
2019-04-22T09:06:04.894Z,19.54
2019-04-22T09:07:58.739Z,19.83
2019-04-22T09:09:01.960Z,19.40
2019-04-22T09:09:55.822Z,17.74
2019-04-22T09:10:58.536Z,18.53
2019-04-22T09:13:58.672Z,19.70
2019-04-22T09:14:49.296Z,18.59
2019-04-22T09:15:58.857Z,18.57
2019-04-22T09:17:01.321Z,19.31
2019-04-22T09:19:56.030Z,16.56
2019-04-22T09:21:09.036Z,16.93
2019-04-22T09:22:00.475Z,16.08
2019-04-22T09:23:04.549Z,18.40
2019-04-22T09:24:00.447Z,16.67
2019-04-22T09:24:54.709Z,16.69
2019-04-22T09:25:57.590Z,16.70
2019-04-22T09:26:54.227Z,17.79
2019-04-22T09:27:59.546Z,17.60
2019-04-22T09:29:02.825Z,17.39
2019-04-22T09:30:17.026Z,17.76
2019-04-22T09:32:00.313Z,15.61
2019-04-22T09:33:06.646Z,16.51
2019-04-22T09:33:53.286Z,17.74
2019-04-22T09:34:51.491Z,17.68
2019-04-22T09:36:00.136Z,18.30
2019-04-22T09:37:04.729Z,18.29
2019-04-22T09:38:52.681Z,19.12
2019-04-22T09:40:03.245Z,18.29
2019-04-22T09:40:52.634Z,18.70
2019-04-22T09:42:03.362Z,18.49
2019-04-22T09:42:56.054Z,20.10
2019-04-22T09:43:56.683Z,19.18
2019-04-22T09:44:53.779Z,18.76
2019-04-22T09:45:53.164Z,17.86
2019-04-22T09:46:52.251Z,18.66
2019-04-22T09:49:04.752Z,16.31
2019-04-22T09:50:01.985Z,16.31
2019-04-22T09:50:52.614Z,16.14
2019-04-22T09:51:58.892Z,16.26
2019-04-22T09:52:51.543Z,16.43
2019-04-22T09:54:00.763Z,16.41
2019-04-22T09:54:59.611Z,16.02
2019-04-22T09:55:57.175Z,16.22
2019-04-22T09:56:55.106Z,15.25
2019-04-22T09:57:55.648Z,15.36
2019-04-22T09:58:58.970Z,15.96
2019-04-22T09:59:57.800Z,16.27
2019-04-22T10:01:07.104Z,16.37
2019-04-22T10:03:03.579Z,16.96
2019-04-22T10:04:03.443Z,16.15
2019-04-22T10:05:00.541Z,16.07
2019-04-22T10:06:00.808Z,17.05
2019-04-22T10:06:54.233Z,16.89
2019-04-22T10:07:59.495Z,17.99
2019-04-22T10:10:03.680Z,17.70
2019-04-22T10:10:58.011Z,17.49
2019-04-22T10:11:58.685Z,18.23
2019-04-22T10:12:57.797Z,18.21
2019-04-22T10:14:55.885Z,18.68
2019-04-22T10:15:54.808Z,17.80
2019-04-22T10:16:54.012Z,16.91
2019-04-22T10:17:56.554Z,17.53
2019-04-22T10:19:00.559Z,17.83
2019-04-22T10:19:53.747Z,17.63
2019-04-22T10:21:02.350Z,18.41
2019-04-22T10:22:12.141Z,17.90
2019-04-22T10:23:00.060Z,17.91
2019-04-22T10:23:53.280Z,18.90
2019-04-22T10:25:01.669Z,18.58
2019-04-22T10:26:02.561Z,17.18
2019-04-22T10:27:08.036Z,17.85
2019-04-22T10:28:03.352Z,17.74
2019-04-22T10:29:00.809Z,17.07
2019-04-22T10:30:52.183Z,19.20
2019-04-22T10:31:55.869Z,18.84
2019-04-22T10:32:52.412Z,19.73
2019-04-22T10:33:45.185Z,19.26
2019-04-22T10:34:39.828Z,19.85
2019-04-22T10:35:32.198Z,20.64
2019-04-22T10:36:29.131Z,20.18
2019-04-22T10:37:30.102Z,20.89
2019-04-22T10:38:30.410Z,21.42
2019-04-22T10:39:39.689Z,22.51
2019-04-22T10:40:30.089Z,24.74
2019-04-22T10:41:30.498Z,24.30
2019-04-22T10:42:29.390Z,24.80
2019-04-22T10:43:29.480Z,24.90
2019-04-22T10:44:29.072Z,24.01
2019-04-22T10:45:30.339Z,24.91
2019-04-22T10:46:30.535Z,24.42
2019-04-22T10:47:29.820Z,25.01
2019-04-22T10:48:30.262Z,24.93
2019-04-22T10:49:28.998Z,25.85
2019-04-22T10:50:31.475Z,26.25
2019-04-22T10:51:28.977Z,25.95
2019-04-22T10:52:29.668Z,26.75
2019-04-22T10:53:29.277Z,26.45
2019-04-22T10:54:29.402Z,27.05
2019-04-22T10:55:29.537Z,26.65
2019-04-22T10:56:28.926Z,27.14
2019-04-22T10:57:29.756Z,27.54
2019-04-22T10:58:28.929Z,26.04
2019-04-22T10:59:28.971Z,26.54
2019-04-22T11:00:29.347Z,25.65
2019-04-22T11:01:29.568Z,26.44
2019-04-22T11:02:29.859Z,25.66
2019-04-22T11:03:28.916Z,26.45
2019-04-22T11:04:30.034Z,26.35
2019-04-22T11:05:30.178Z,26.06
2019-04-22T11:06:29.536Z,26.75
2019-04-22T11:07:36.274Z,26.76
2019-04-22T11:08:38.895Z,26.57
2019-04-22T11:09:30.973Z,26.97
2019-04-22T11:10:46.815Z,25.96
2019-04-22T11:11:41.153Z,27.35
2019-04-22T11:12:32.284Z,26.86
2019-04-22T11:13:29.751Z,26.35
2019-04-22T11:14:28.784Z,26.06
2019-04-22T11:15:28.785Z,26.26
2019-04-22T11:16:29.855Z,26.07
2019-04-22T11:17:29.297Z,26.76
2019-04-22T11:18:29.603Z,26.37
2019-04-22T11:19:29.844Z,26.57
2019-04-22T11:20:29.213Z,26.67
2019-04-22T11:21:29.577Z,27.36
2019-04-22T11:22:33.219Z,27.86
2019-04-22T11:23:29.653Z,27.25
2019-04-22T11:24:28.636Z,26.76
2019-04-22T11:25:29.840Z,26.87
2019-04-22T11:26:30.195Z,27.05
2019-04-22T11:27:28.737Z,25.76
2019-04-22T11:28:29.636Z,26.27
2019-04-22T11:29:29.887Z,26.07
2019-04-22T11:30:30.195Z,27.17
2019-04-22T11:31:28.550Z,27.36
2019-04-22T11:32:28.666Z,27.47
2019-04-22T11:33:28.557Z,27.55
2019-04-22T11:34:29.069Z,27.05
2019-04-22T11:35:29.773Z,27.25
2019-04-22T11:36:30.726Z,27.44
2019-04-22T11:37:28.494Z,26.34
2019-04-22T11:38:28.849Z,26.56
2019-04-22T11:39:31.186Z,26.06
2019-04-22T11:40:34.927Z,25.89
2019-04-22T11:41:29.462Z,26.68
2019-04-22T11:42:30.004Z,25.78
2019-04-22T11:43:28.589Z,25.89
2019-04-22T11:44:30.653Z,26.17
2019-04-22T11:45:29.133Z,26.27
2019-04-22T11:46:29.522Z,27.06
2019-04-22T11:47:29.675Z,26.17
2019-04-22T11:48:29.185Z,25.87
2019-04-22T11:49:28.360Z,25.37
2019-04-22T11:50:28.361Z,25.27
2019-04-22T11:51:29.646Z,26.18
2019-04-22T11:52:28.831Z,25.97
2019-04-22T11:53:28.997Z,26.37
2019-04-22T11:54:28.617Z,26.17
2019-04-22T11:55:28.851Z,26.58
2019-04-22T11:56:29.375Z,26.78
2019-04-22T11:57:28.806Z,27.09
2019-04-22T11:58:28.858Z,27.87
2019-04-22T11:59:29.025Z,28.27
2019-04-22T12:00:28.247Z,27.08
2019-04-22T12:01:28.756Z,26.88
2019-04-22T12:02:29.154Z,27.48
2019-04-22T12:03:28.682Z,27.58
2019-04-22T12:04:29.882Z,27.37
2019-04-22T12:05:28.204Z,27.58
2019-04-22T12:06:28.237Z,27.48
2019-04-22T12:07:30.103Z,27.48
2019-04-22T12:08:29.094Z,26.98
2019-04-22T12:09:28.173Z,28.27
2019-04-22T12:10:36.685Z,28.17
2019-04-22T12:11:30.259Z,27.69
2019-04-22T12:12:29.586Z,27.29
2019-04-22T12:13:28.280Z,28.28
2019-04-22T12:14:28.095Z,29.37
2019-04-22T12:15:28.904Z,28.87
2019-04-22T12:16:29.505Z,26.78
2019-04-22T12:17:28.074Z,27.78
2019-04-22T12:18:29.107Z,28.27
2019-04-22T12:19:29.389Z,27.48
2019-04-22T12:20:29.332Z,28.27
2019-04-22T12:21:29.004Z,28.09
2019-04-22T12:22:29.270Z,28.49
2019-04-22T12:23:29.390Z,27.49
2019-04-22T12:24:28.179Z,27.79
2019-04-22T12:25:35.677Z,28.17
2019-04-22T12:26:30.477Z,28.38
2019-04-22T12:27:28.748Z,28.78
2019-04-22T12:28:28.809Z,27.29
2019-04-22T12:29:29.021Z,27.19
2019-04-22T12:30:28.015Z,27.29
2019-04-22T12:31:29.028Z,28.09
2019-04-22T12:32:29.384Z,28.57
2019-04-22T12:33:27.894Z,28.97
2019-04-22T12:34:29.153Z,28.17
2019-04-22T12:35:28.364Z,28.77
2019-04-22T12:36:28.758Z,28.57
2019-04-22T12:37:35.385Z,28.56
2019-04-22T12:38:29.411Z,28.86
2019-04-22T12:39:27.824Z,28.17
2019-04-22T12:40:39.520Z,28.17
2019-04-22T12:41:28.810Z,28.17
2019-04-22T12:42:29.240Z,29.07
2019-04-22T12:43:29.444Z,30.07
2019-04-22T12:44:28.507Z,29.97
2019-04-22T12:45:27.757Z,29.25
2019-04-22T12:46:28.132Z,29.25
2019-04-22T12:47:28.322Z,28.76
2019-04-22T12:48:27.751Z,28.86
2019-04-22T12:49:28.049Z,29.37
2019-04-22T12:50:33.169Z,29.85
2019-04-22T12:51:29.219Z,29.35
2019-04-22T12:52:37.405Z,28.34
2019-04-22T12:53:29.912Z,28.66
2019-04-22T12:54:29.082Z,29.55
2019-04-22T12:55:27.977Z,29.05
2019-04-22T12:56:27.941Z,28.56
2019-04-22T12:57:28.317Z,28.15
2019-04-22T12:58:27.764Z,28.76
2019-04-22T12:59:28.020Z,28.96
2019-04-22T13:00:27.617Z,28.26
2019-04-22T13:01:28.976Z,28.06
2019-04-22T13:02:29.025Z,28.76
2019-04-22T13:03:28.593Z,28.36
2019-04-22T13:04:27.986Z,28.56
2019-04-22T13:05:29.106Z,28.27
2019-04-22T13:06:27.898Z,28.17
2019-04-22T13:07:27.535Z,27.48
2019-04-22T13:08:27.687Z,27.36
2019-04-22T13:09:27.568Z,27.56
2019-04-22T13:10:40.549Z,28.36
2019-04-22T13:11:32.238Z,27.95
2019-04-22T13:12:29.080Z,28.85
2019-04-22T13:13:28.801Z,28.64
2019-04-22T13:14:27.490Z,28.55
2019-04-22T13:15:28.869Z,28.94
2019-04-22T13:16:29.175Z,26.56
2019-04-22T13:17:27.425Z,26.07
2019-04-22T13:18:37.147Z,25.97
2019-04-22T13:19:30.089Z,26.27
2019-04-22T13:20:28.177Z,27.48
2019-04-22T13:21:28.812Z,26.67
2019-04-22T13:22:27.378Z,27.26
2019-04-22T13:23:27.567Z,28.56
2019-04-22T13:24:27.992Z,26.35
2019-04-22T13:25:30.009Z,25.27
2019-04-22T13:26:27.317Z,25.97
2019-04-22T13:27:28.796Z,26.37
2019-04-22T13:28:27.331Z,27.36
2019-04-22T13:29:27.698Z,26.37
2019-04-22T13:30:28.433Z,27.06
2019-04-22T13:31:28.692Z,27.56
2019-04-22T13:32:27.278Z,27.36
2019-04-22T13:33:28.514Z,26.45
2019-04-22T13:34:34.818Z,27.15
2019-04-22T13:35:29.524Z,27.55
2019-04-22T13:36:28.317Z,26.75
2019-04-22T13:37:28.530Z,26.56
2019-04-22T13:38:27.202Z,26.65
2019-04-22T13:39:27.273Z,27.15
2019-04-22T13:40:28.695Z,26.56
2019-04-22T13:41:33.912Z,27.45
2019-04-22T13:42:29.815Z,27.55
2019-04-22T13:43:27.269Z,26.26
2019-04-22T13:44:28.097Z,27.15
2019-04-22T13:45:27.675Z,26.57
2019-04-22T13:46:31.146Z,26.57
2019-04-22T13:47:41.748Z,27.35
2019-04-22T13:48:46.898Z,25.66
2019-04-22T13:50:17.227Z,26.35
2019-04-22T13:50:59.506Z,27.45
2019-04-22T13:53:10.366Z,26.35
2019-04-22T13:54:36.339Z,26.56
2019-04-22T13:55:08.165Z,26.56
2019-04-22T13:55:59.277Z,27.15
2019-04-22T13:56:49.202Z,25.86
2019-04-22T13:57:45.371Z,27.35
2019-04-22T13:58:40.982Z,27.65
2019-04-22T13:59:36.633Z,27.35
2019-04-22T14:00:28.649Z,27.55
2019-04-22T14:01:28.229Z,26.95
2019-04-22T14:02:28.492Z,28.25
2019-04-22T14:03:26.929Z,27.15
2019-04-22T14:04:28.404Z,27.65
2019-04-22T14:05:26.974Z,27.15
2019-04-22T14:06:26.997Z,28.64
2019-04-22T14:07:26.873Z,28.74
2019-04-22T14:08:26.987Z,27.45
2019-04-22T14:09:28.274Z,28.05
2019-04-22T14:10:27.006Z,27.95
2019-04-22T14:11:39.344Z,28.44
2019-04-22T14:12:28.759Z,28.23
2019-04-22T14:13:27.966Z,28.55
2019-04-22T14:14:28.070Z,27.04
2019-04-22T14:15:27.763Z,28.63
2019-04-22T14:16:27.124Z,28.74
2019-04-22T14:17:27.104Z,27.65
2019-04-22T14:18:26.756Z,27.45
2019-04-22T14:19:27.873Z,27.73
2019-04-22T14:20:29.164Z,27.04
2019-04-22T14:21:27.058Z,26.45
2019-04-22T14:22:26.711Z,27.55
2019-04-22T14:23:26.864Z,27.44
2019-04-22T14:24:27.924Z,26.94
2019-04-22T14:25:26.696Z,26.84
2019-04-22T14:26:27.327Z,26.64
2019-04-22T14:27:37.892Z,26.25
2019-04-22T14:28:29.243Z,27.35
2019-04-22T14:29:26.629Z,26.65
2019-04-22T14:30:26.621Z,27.75
2019-04-22T14:31:26.808Z,27.15